Time;durP1;ratioP1;P1;durP2;ratioP2;P2;SDS_P1;SDS_P2;PMS_P1;PMS_P2;Temp;Humidity;BMP_temperature;BMP_pressure;BME280_temperature;BME280_humidity;BME280_pressure;Samples;Min_cycle;Max_cycle;Signal;HPM_P1;HPM_P2
2022/09/20 00:00:40;;;;;;;31.43;18.27;;;8.50;99.90;;;;;;5032836;28;20665;-87
2022/09/20 00:03:10;;;;;;;31.97;18.50;;;8.50;99.90;;;;;;5031340;28;20283;-87
2022/09/20 00:05:38;;;;;;;33.27;18.93;;;8.50;99.90;;;;;;5046307;28;20197;-86
2022/09/20 00:08:08;;;;;;;32.77;18.80;;;8.50;1.00;;;;;;5033152;28;20212;-86
2022/09/20 00:10:38;;;;;;;32.07;18.43;;;8.40;99.90;;;;;;5032732;28;20193;-86
2022/09/20 00:13:06;;;;;;;32.47;18.63;;;8.40;1.00;;;;;;5047671;28;20322;-86
2022/09/20 00:15:34;;;;;;;33.50;18.97;;;8.40;99.90;;;;;;5053026;28;20192;-86
2022/09/20 00:18:01;;;;;;;33.17;18.83;;;8.40;99.90;;;;;;5052611;28;20557;-86
2022/09/20 00:20:30;;;;;;;33.50;19.03;;;8.40;99.90;;;;;;5037721;28;20185;-87
2022/09/20 00:22:57;;;;;;;32.27;18.57;;;8.40;99.90;;;;;;5033043;28;20689;-86
2022/09/20 00:25:24;;;;;;;33.37;18.87;;;8.40;1.00;;;;;;5050504;28;20192;-86
2022/09/20 00:27:51;;;;;;;33.63;18.93;;;8.40;1.00;;;;;;5052251;28;20207;-86
2022/09/20 00:30:18;;;;;;;32.70;18.63;;;8.40;99.90;;;;;;5052236;28;20204;-86
2022/09/20 00:32:45;;;;;;;33.63;18.90;;;8.40;1.00;;;;;;5052542;28;20188;-86
2022/09/20 00:35:11;;;;;;;34.83;19.47;;;8.50;1.00;;;;;;5052175;28;20203;-86
2022/09/20 00:37:41;;;;;;;33.03;18.63;;;8.40;1.00;;;;;;5052390;28;20193;-84
2022/09/20 00:40:12;;;;;;;32.03;18.50;;;8.40;1.00;;;;;;5039320;28;20186;-87
2022/09/20 00:42:39;;;;;;;34.37;19.20;;;8.50;1.00;;;;;;5051687;28;20184;-86
2022/09/20 00:45:10;;;;;;;34.23;19.17;;;8.50;1.00;;;;;;5052375;28;20200;-86
2022/09/20 00:47:42;;;;;;;33.77;18.83;;;8.50;1.00;;;;;;5041817;28;20189;-86
2022/09/20 00:50:14;;;;;;;;;;;8.40;1.00;;;;;;5052238;28;20105;-86
2022/09/20 00:52:45;;;;;;;35.33;19.40;;;8.40;1.00;;;;;;5051889;28;20646;-86
2022/09/20 00:55:14;;;;;;;35.53;19.57;;;8.40;1.00;;;;;;5044708;28;20204;-86
2022/09/20 00:57:42;;;;;;;36.30;19.77;;;8.40;1.00;;;;;;5049312;28;20633;-87
2022/09/20 01:00:11;;;;;;;35.13;19.37;;;8.40;1.00;;;;;;5051920;28;20200;-87
2022/09/20 01:02:42;;;;;;;33.50;18.83;;;8.40;1.00;;;;;;5051327;28;20228;-86
2022/09/20 01:05:10;;;;;;;32.70;18.73;;;8.40;99.90;;;;;;5040759;28;20242;-85
2022/09/20 01:07:38;;;;;;;24.60;16.47;;;8.40;1.00;;;;;;5045462;28;20202;-86
2022/09/20 01:10:08;;;;;;;24.97;16.60;;;8.40;99.90;;;;;;5018799;28;20193;-86
2022/09/20 01:12:39;;;;;;;28.10;17.50;;;8.40;1.00;;;;;;5038790;28;20200;-86
2022/09/20 01:15:08;;;;;;;30.67;18.10;;;8.40;1.00;;;;;;5031979;28;20516;-87
2022/09/20 01:17:40;;;;;;;29.63;17.70;;;8.30;1.00;;;;;;5023980;28;20257;-86
2022/09/20 01:20:16;;;;;;;30.90;18.23;;;8.30;1.00;;;;;;5031834;28;20194;-87
2022/09/20 01:22:53;;;;;;;29.37;17.70;;;8.30;1.00;;;;;;5032291;28;20201;-87
2022/09/20 01:25:45;;;;;;;29.73;17.87;;;8.30;1.00;;;;;;5018340;28;20212;-87
2022/09/20 01:28:13;;;;;;;26.60;16.93;;;8.30;1.00;;;;;;5031944;28;20247;-87
2022/09/20 01:30:45;;;;;;;29.97;17.77;;;8.30;1.00;;;;;;5032106;28;20193;-87
2022/09/20 01:33:18;;;;;;;30.73;18.10;;;8.30;1.00;;;;;;5032147;28;20201;-86
2022/09/20 01:35:50;;;;;;;29.07;17.63;;;8.30;1.00;;;;;;5032541;28;20228;-86
2022/09/20 01:38:31;;;;;;;29.33;17.63;;;8.40;1.00;;;;;;5031799;28;20195;-87
2022/09/20 01:41:05;;;;;;;30.13;17.80;;;8.40;99.90;;;;;;5032464;28;20177;-87
2022/09/20 01:43:39;;;;;;;30.47;18.10;;;8.40;1.00;;;;;;5031998;28;20204;-86
2022/09/20 01:46:19;;;;;;;27.80;17.20;;;8.40;1.00;;;;;;5031845;28;20181;-86
2022/09/20 01:48:49;;;;;;;25.30;16.47;;;8.40;1.00;;;;;;5032058;28;20228;-86
2022/09/20 01:51:45;;;;;;;32.13;18.63;;;8.40;1.00;;;;;;5032351;28;20197;-87
2022/09/20 01:54:43;;;;;;;32.60;18.77;;;8.40;99.90;;;;;;5019394;28;20201;-88
2022/09/20 01:57:42;;;;;;;31.10;18.10;;;8.40;1.00;;;;;;5032256;28;20177;-87
2022/09/20 02:00:14;;;;;;;30.97;18.07;;;8.40;1.00;;;;;;5032018;28;20251;-86
2022/09/20 02:03:07;;;;;;;31.47;18.30;;;8.40;1.00;;;;;;5032907;28;20221;-87
2022/09/20 02:06:04;;;;;;;30.87;18.13;;;8.40;1.00;;;;;;5035916;28;20244;-87
2022/09/20 02:09:13;;;;;;;30.00;18.00;;;8.40;1.00;;;;;;5035255;28;20185;-87
2022/09/20 02:11:58;;;;;;;29.27;17.77;;;8.40;99.90;;;;;;5015650;28;20604;-87
2022/09/20 02:14:40;;;;;;;28.03;17.27;;;8.30;99.90;;;;;;5035157;28;20221;-86
2022/09/20 02:17:14;;;;;;;30.23;17.97;;;8.30;99.90;;;;;;5035342;28;20224;-87
2022/09/20 02:20:13;;;;;;;30.47;18.10;;;8.30;1.00;;;;;;5035436;28;20182;-87
2022/09/20 02:22:56;;;;;;;29.30;17.70;;;8.30;99.90;;;;;;5035039;28;20181;-88
2022/09/20 02:25:41;;;;;;;29.53;17.73;;;8.30;1.00;;;;;;5034878;28;20589;-87
2022/09/20 02:28:19;;;;;;;30.03;17.90;;;8.30;1.00;;;;;;5035400;28;20203;-87
2022/09/20 02:30:55;;;;;;;30.43;18.03;;;8.20;1.00;;;;;;5035313;28;20263;-87
2022/09/20 02:33:52;;;;;;;29.43;17.50;;;8.20;1.00;;;;;;5034984;28;20192;-87
2022/09/20 02:36:40;;;;;;;29.73;17.97;;;8.20;1.00;;;;;;5013207;28;20189;-87
2022/09/20 02:39:13;;;;;;;30.30;18.10;;;8.30;1.00;;;;;;5035327;28;20178;-87
2022/09/20 02:41:58;;;;;;;30.23;18.03;;;8.30;99.90;;;;;;5034779;28;20228;-88
2022/09/20 02:44:48;;;;;;;29.83;17.80;;;8.20;1.00;;;;;;5034659;28;20211;-87
2022/09/20 02:47:26;;;;;;;28.27;17.30;;;8.20;99.90;;;;;;5034959;28;20198;-86
2022/09/20 02:50:05;;;;;;;28.00;17.20;;;8.20;99.90;;;;;;5034857;28;20268;-86
2022/09/20 02:52:42;;;;;;;30.67;18.10;;;8.20;1.00;;;;;;5034780;28;20181;-87
2022/09/20 02:55:16;;;;;;;30.27;18.03;;;8.10;1.00;;;;;;5034530;28;20196;-86
2022/09/20 02:57:51;;;;;;;29.13;17.67;;;8.10;1.00;;;;;;5034673;28;20196;-87
2022/09/20 03:00:24;;;;;;;29.57;17.80;;;8.10;1.00;;;;;;5034696;28;20181;-86
2022/09/20 03:03:03;;;;;;;29.17;17.83;;;8.10;99.90;;;;;;5034328;28;20300;-87
2022/09/20 03:05:44;;;;;;;27.63;17.27;;;8.10;99.90;;;;;;5034656;28;20551;-87
2022/09/20 03:08:23;;;;;;;27.80;17.23;;;8.20;99.90;;;;;;5034229;28;20272;-87
2022/09/20 03:10:59;;;;;;;27.87;17.20;;;8.20;1.00;;;;;;5034071;28;20186;-86
2022/09/20 03:13:38;;;;;;;27.07;17.10;;;8.30;1.00;;;;;;5034113;28;20185;-87
2022/09/20 03:16:13;;;;;;;30.47;17.90;;;8.40;99.90;;;;;;5034778;28;20597;-87
2022/09/20 03:18:49;;;;;;;39.33;20.53;;;8.50;1.00;;;;;;5033981;28;20181;-87
2022/09/20 03:22:02;;;;;;;27.17;17.07;;;8.50;1.00;;;;;;5031368;28;20189;-86
2022/09/20 03:24:41;;;;;;;26.40;16.90;;;8.60;99.90;;;;;;5034190;28;20201;-87
2022/09/20 03:27:19;;;;;;;37.33;20.20;;;8.60;1.00;;;;;;5034012;28;20239;-87
2022/09/20 03:30:00;;;;;;;38.67;20.37;;;8.70;1.00;;;;;;5032152;28;20219;-86
2022/09/20 03:32:43;;;;;;;40.27;21.07;;;8.70;1.00;;;;;;5033040;28;20239;-86
2022/09/20 03:35:22;;;;;;;40.37;21.03;;;8.70;1.00;;;;;;5014305;28;20186;-87
2022/09/20 03:38:03;;;;;;;42.17;21.50;;;8.70;99.90;;;;;;5013913;28;20213;-87
2022/09/20 03:41:15;;;;;;;44.37;22.07;;;8.70;1.00;;;;;;5013904;28;20209;-87
2022/09/20 03:44:00;;;;;;;44.43;22.13;;;8.70;33.40;;;;;;5013703;28;20178;-86
2022/09/20 03:46:28;;;;;;;45.80;22.47;;;8.60;1.00;;;;;;5013775;28;20272;-86
2022/09/20 03:49:32;;;;;;;43.67;21.80;;;8.60;99.90;;;;;;5013865;28;20838;-86
2022/09/20 03:52:08;;;;;;;46.70;22.63;;;8.50;1.00;;;;;;5013503;28;20204;-87
2022/09/20 03:55:03;;;;;;;43.70;21.83;;;8.50;1.00;;;;;;5013867;28;20545;-88
2022/09/20 03:57:50;;;;;;;44.27;22.03;;;8.50;41.40;;;;;;5013425;28;20194;-86
2022/09/20 04:00:22;;;;;;;45.07;22.27;;;8.50;99.90;;;;;;5013792;28;20186;-87
2022/09/20 04:03:23;;;;;;;44.97;22.10;;;8.40;1.00;;;;;;5016266;28;20646;-86
2022/09/20 04:06:16;;;;;;;43.93;21.93;;;8.40;1.00;;;;;;5017810;28;20237;-88
2022/09/20 04:09:01;;;;;;;43.93;21.80;;;8.30;1.00;;;;;;5027195;28;20272;-86
2022/09/20 04:11:37;;;;;;;45.53;22.30;;;8.30;17.20;;;;;;5029183;28;20551;-87
2022/09/20 04:14:17;;;;;;;45.63;22.43;;;8.30;1.00;;;;;;5013210;28;20578;-87
2022/09/20 04:16:52;;;;;;;44.93;22.03;;;8.30;1.00;;;;;;5013297;28;20214;-87
2022/09/20 04:19:28;;;;;;;44.90;22.23;;;8.20;1.00;;;;;;5029538;28;20228;-85
2022/09/20 04:21:56;;;;;;;44.50;21.90;;;8.20;1.00;;;;;;5033436;28;20219;-86
2022/09/20 04:24:40;;;;;;;45.20;22.17;;;8.20;99.90;;;;;;5026835;28;20229;-86
2022/09/20 04:27:15;;;;;;;45.10;22.13;;;8.10;1.00;;;;;;5013354;28;20182;-87
2022/09/20 04:29:52;;;;;;;54.50;24.13;;;8.10;1.00;;;;;;5012949;28;20494;-87
2022/09/20 04:32:25;;;;;;;59.00;25.08;;;8.10;1.00;;;;;;5012226;28;20520;-87
2022/09/20 04:37:46;;;;;;;31.20;18.10;;;8.00;99.90;;;;;;5033033;28;20204;-86
2022/09/20 04:40:26;;;;;;;61.85;25.45;;;8.00;1.00;;;;;;5031758;28;20903;-86
2022/09/20 04:43:23;;;;;;;;;;;8.00;99.90;;;;;;5033107;28;20216;-87
2022/09/20 04:46:26;;;;;;;32.93;18.70;;;7.90;1.00;;;;;;5032692;28;20211;-87
2022/09/20 04:49:20;;;;;;;43.03;21.53;;;7.90;1.00;;;;;;5017856;28;20646;-85
2022/09/20 04:52:27;;;;;;;42.40;21.33;;;7.90;1.00;;;;;;5018994;28;20193;-87
2022/09/20 04:55:36;;;;;;;41.60;21.33;;;7.90;7.50;;;;;;5000704;28;20205;-87
2022/09/20 04:58:39;;;;;;;42.00;21.13;;;7.90;1.00;;;;;;5020556;28;20244;-86
2022/09/20 05:01:42;;;;;;;42.17;21.33;;;7.90;99.90;;;;;;5019309;28;20193;-84
2022/09/20 05:05:01;;;;;;;44.20;21.87;;;7.90;1.00;;;;;;5026711;28;20617;-85
2022/09/20 05:08:16;;;;;;;43.33;21.87;;;7.90;1.00;;;;;;5049485;28;20215;-85
2022/09/20 05:11:30;;;;;;;41.53;21.27;;;7.80;1.00;;;;;;5055087;28;20625;-84
2022/09/20 05:14:23;;;;;;;40.57;21.07;;;7.80;1.00;;;;;;5034844;28;20197;-88
2022/09/20 05:17:34;;;;;;;;;;;;;;;;;;;;;
2022/09/20 05:23:46;;;;;;;42.90;21.67;;;8.10;1.00;;;;;;5032154;28;20596;-85
2022/09/20 05:29:55;;;;;;;46.40;22.47;;;8.30;99.90;;;;;;5000711;28;20189;-87
2022/09/20 05:32:55;;;;;;;43.33;21.70;;;8.30;99.90;;;;;;5032560;28;20615;-88
2022/09/20 05:35:30;;;;;;;47.77;22.90;;;8.40;1.00;;;;;;5036083;28;20211;-87
2022/09/20 05:38:05;;;;;;;46.50;22.47;;;8.40;99.90;;;;;;5036528;28;20592;-90
2022/09/20 05:40:48;;;;;;;44.87;22.17;;;8.40;99.90;;;;;;5036992;28;20185;-87
2022/09/20 05:47:03;;;;;;;44.57;22.00;;;8.50;49.40;;;;;;5014743;28;20289;-86
2022/09/20 05:49:44;;;;;;;44.57;22.03;;;8.50;1.00;;;;;;5042188;28;20249;-89
2022/09/20 05:55:54;;;;;;;45.40;22.17;;;8.50;99.90;;;;;;5033648;28;20211;-89
2022/09/20 05:58:38;;;;;;;44.47;22.03;;;8.50;99.90;;;;;;5030982;28;20255;-84
2022/09/20 06:01:44;;;;;;;43.13;21.77;;;8.60;1.00;;;;;;5036011;28;20221;-86
2022/09/20 06:04:24;;;;;;;44.83;22.00;;;8.80;99.90;;;;;;5035129;28;20220;-87
2022/09/20 06:07:21;;;;;;;25.75;16.88;;;9.40;1.00;;;;;;5037296;28;20185;-88
2022/09/20 06:10:22;;;;;;;26.42;17.25;;;10.40;99.90;;;;;;5037583;28;20197;-85
2022/09/20 06:13:27;;;;;;;;;;;;;;;;;;;;;
2022/09/20 06:15:59;;;;;;;24.63;16.88;;;12.20;1.00;;;;;;5035697;28;20204;-84
2022/09/20 06:18:32;;;;;;;31.23;19.25;;;12.80;99.90;;;;;;5036380;28;20185;-84
2022/09/20 06:21:20;;;;;;;34.35;20.35;;;13.20;1.00;;;;;;5035750;28;20170;-84
2022/09/20 06:23:49;;;;;;;;;;;13.70;1.00;;;;;;5035938;28;20189;-84
2022/09/20 06:29:37;;;;;;;;;;;15.70;1.00;;;;;;5033585;28;19932;-89
2022/09/20 06:32:05;;;;;;;;;;;16.80;1.00;;;;;;5021041;28;20057;-92
2022/09/20 06:43:31;;;;;;;;;;;19.90;1.00;;;;;;5039299;28;20408;-90
2022/09/20 06:48:55;;;;;;;;;;;20.40;1.00;;;;;;5037153;28;20217;-91
2022/09/20 06:51:23;;;;;;;;;;;21.30;99.90;;;;;;5034964;28;20937;-86
2022/09/20 06:54:16;;;;;;;;;;;21.90;1.00;;;;;;5037022;28;19967;-89
2022/09/20 06:56:52;;;;;;;;;;;22.50;1.00;;;;;;5037535;28;19921;-89
2022/09/20 06:59:19;;;;;;;;;;;23.00;94.60;;;;;;5040539;28;19921;-87
2022/09/20 07:04:45;;;;;;;;;;;23.80;1.00;;;;;;5009819;28;20347;-86
2022/09/20 07:07:21;;;;;;;;;;;24.10;1.00;;;;;;5024682;28;19956;-88
2022/09/20 07:09:48;;;;;;;;;;;24.50;1.00;;;;;;5024169;28;20469;-87
2022/09/20 07:12:38;;;;;;;35.70;21.85;;;25.00;1.00;;;;;;5020923;28;20188;-89
2022/09/20 07:18:41;;;;;;;60.90;27.58;;;25.70;1.00;;;;;;4894153;29;20201;-90
2022/09/20 07:21:11;;;;;;;51.88;25.92;;;25.90;1.00;;;;;;4933021;28;20707;-86
2022/09/20 07:23:44;;;;;;;;;;;26.10;1.00;;;;;;5024380;28;20183;-87
2022/09/20 07:26:54;;;;;;;57.85;27.20;;;26.30;1.00;;;;;;5022011;28;20070;-88
2022/09/20 07:29:23;;;;;;;78.10;29.73;;;26.60;1.00;;;;;;5027722;28;20517;-88
2022/09/20 07:31:50;;;;;;;82.45;29.80;;;26.90;1.00;;;;;;5025346;28;20198;-90
2022/09/20 07:34:19;;;;;;;80.10;29.85;;;27.00;1.00;;;;;;5020616;28;20262;-88
2022/09/20 07:37:21;;;;;;;83.18;30.20;;;27.00;1.00;;;;;;5017740;28;20678;-89
2022/09/20 07:40:33;;;;;;;82.47;30.15;;;27.00;1.00;;;;;;5025872;28;20216;-90
2022/09/20 07:43:00;;;;;;;80.53;29.70;;;27.00;1.00;;;;;;4924518;28;20194;-86
2022/09/20 07:45:29;;;;;;;80.15;29.80;;;26.90;1.00;;;;;;5002625;28;20208;-86
2022/09/20 07:47:57;;;;;;;79.03;29.50;;;27.00;1.00;;;;;;5009565;28;20849;-86
2022/09/20 07:50:36;;;;;;;81.53;29.88;;;27.10;1.00;;;;;;5005557;28;20198;-90
2022/09/20 07:53:03;;;;;;;82.55;30.23;;;27.20;1.00;;;;;;4999270;28;20189;-88
2022/09/20 07:55:33;;;;;;;82.55;30.15;;;27.40;1.00;;;;;;5002115;28;20265;-88
2022/09/20 07:58:00;;;;;;;82.45;30.23;;;27.50;1.00;;;;;;5007105;28;20183;-87
2022/09/20 08:00:29;;;;;;;80.28;30.10;;;27.90;1.00;;;;;;4999811;28;20202;-86
2022/09/20 08:03:00;;;;;;;;;;;28.20;1.00;;;;;;5024159;28;20072;-88
2022/09/20 08:05:27;;;;;;;66.38;28.40;;;28.40;1.00;;;;;;5039984;28;20276;-86
2022/09/20 08:07:56;;;;;;;67.95;28.27;;;28.70;1.00;;;;;;5044079;28;20221;-89
2022/09/20 08:10:24;;;;;;;68.53;28.42;;;28.80;1.00;;;;;;5036793;28;20205;-86
2022/09/20 08:12:59;;;;;;;68.05;28.23;;;28.60;1.00;;;;;;5043669;28;20197;-89
2022/09/20 08:15:28;;;;;;;68.50;28.50;;;28.30;1.00;;;;;;5039836;28;20220;-87
2022/09/20 08:18:13;;;;;;;71.07;28.75;;;28.20;1.00;;;;;;5041558;28;20208;-89
2022/09/20 08:20:40;;;;;;;73.72;29.02;;;28.20;1.00;;;;;;5042745;28;20185;-88
2022/09/20 08:23:08;;;;;;;74.45;29.00;;;28.20;1.00;;;;;;5042012;28;20194;-86
2022/09/20 08:25:51;;;;;;;75.55;29.00;;;28.50;1.00;;;;;;5047243;28;20204;-88
2022/09/20 08:28:18;;;;;;;73.70;29.13;;;28.50;1.00;;;;;;5039880;28;20189;-87
2022/09/20 08:30:51;;;;;;;73.75;29.17;;;28.70;1.00;;;;;;5043394;28;20568;-90
2022/09/20 08:33:18;;;;;;;71.45;28.98;;;28.70;1.00;;;;;;5044671;28;20666;-88
2022/09/20 08:35:49;;;;;;;73.55;28.75;;;28.40;1.00;;;;;;5035460;28;20267;-86
2022/09/20 08:41:21;;;;;;;75.75;29.15;;;28.20;1.00;;;;;;5041143;28;20685;-89
2022/09/20 08:43:54;;;;;;;78.93;29.85;;;28.30;1.00;;;;;;5041698;28;20209;-87
2022/09/20 08:46:47;;;;;;;79.70;29.88;;;28.40;1.00;;;;;;5039431;28;20185;-91
2022/09/20 08:52:23;;;;;;;84.82;30.42;;;28.80;1.00;;;;;;5035148;28;20201;-88
2022/09/20 08:55:01;;;;;;;86.00;30.55;;;28.80;1.00;;;;;;5043536;28;20186;-91
2022/09/20 08:57:43;;;;;;;90.22;30.92;;;28.90;1.00;;;;;;5043527;28;20195;-90
2022/09/20 09:00:19;;;;;;;82.68;30.08;;;29.00;1.00;;;;;;5047608;28;20232;-89
2022/09/20 09:03:35;;;;;;;78.05;29.10;;;29.00;1.00;;;;;;5036630;28;20201;-91
2022/09/20 09:06:02;;;;;;;79.15;29.02;;;29.10;1.00;;;;;;5042687;28;20248;-88
2022/09/20 09:12:09;;;;;;;79.57;29.13;;;29.20;1.00;;;;;;5009653;28;20639;-89
2022/09/20 09:14:53;;;;;;;81.72;29.23;;;28.30;1.00;;;;;;5035130;28;20221;-88
2022/09/20 09:17:56;;;;;;;;;;;;;;;;;;;;;
2022/09/20 09:20:24;;;;;;;78.63;29.38;;;28.00;1.00;;;;;;5029461;28;20204;-87
2022/09/20 09:23:01;;;;;;;;;;;27.10;1.00;;;;;;5035982;28;20053;-89
2022/09/20 09:25:33;;;;;;;95.30;30.88;;;26.00;1.00;;;;;;5036873;28;20291;-86
2022/09/20 09:28:04;;;;;;;;;;;25.50;1.00;;;;;;5046619;28;20083;-86
2022/09/20 09:30:40;;;;;;;;;;;25.30;1.00;;;;;;5043058;28;20011;-93
2022/09/20 09:33:26;;;;;;;99.53;31.73;;;25.60;1.00;;;;;;5040571;28;20165;-89
2022/09/20 09:36:17;;;;;;;98.47;31.67;;;26.10;1.00;;;;;;5050717;28;20291;-91
2022/09/20 09:38:45;;;;;;;;;;;26.20;1.00;;;;;;5032151;28;20504;-86
2022/09/20 09:41:25;;;;;;;49.00;24.83;;;25.60;1.00;;;;;;5031759;28;20023;-86
2022/09/20 09:44:36;;;;;;;26.48;19.00;;;24.60;1.00;;;;;;5042668;28;20246;-90
2022/09/20 09:47:03;;;;;;;22.50;17.45;;;23.90;1.00;;;;;;5037221;28;20251;-86
2022/09/20 09:49:34;;;;;;;26.80;19.00;;;23.60;1.00;;;;;;5039316;28;20196;-88
2022/09/20 09:55:17;;;;;;;24.48;18.25;;;24.00;1.00;;;;;;5023786;28;20195;-89
2022/09/20 09:57:54;;;;;;;21.23;16.85;;;23.60;1.00;;;;;;5037779;28;20265;-86
2022/09/20 10:00:25;;;;;;;23.83;17.83;;;23.00;1.00;;;;;;5034474;28;20183;-85
2022/09/20 10:03:25;;;;;;;26.15;18.70;;;22.30;1.00;;;;;;5033980;28;20226;-85
2022/09/20 10:06:17;;;;;;;32.25;20.17;;;21.70;1.00;;;;;;5039707;28;20188;-84
2022/09/20 10:09:01;;;;;;;19.00;15.77;;;21.00;1.00;;;;;;5035378;28;20208;-88
2022/09/20 10:11:37;;;;;;;11.07;10.20;;;20.40;1.00;;;;;;5035962;28;20598;-90
2022/09/20 10:14:17;;;;;;;12.07;11.07;;;19.90;1.00;;;;;;5032068;28;20210;-87
2022/09/20 10:17:02;;;;;;;12.05;11.02;;;19.40;1.00;;;;;;5033561;28;20206;-85
2022/09/20 10:19:46;;;;;;;;;;;19.30;1.00;;;;;;5035150;28;20182;-87
2022/09/20 10:22:34;;;;;;;17.17;14.63;;;19.40;1.00;;;;;;5043158;28;20048;-91
2022/09/20 10:25:09;;;;;;;16.55;14.60;;;19.60;1.00;;;;;;5049463;28;20190;-87
2022/09/20 10:27:48;;;;;;;19.25;15.88;;;19.80;1.00;;;;;;5034699;28;20186;-87
2022/09/20 10:30:18;;;;;;;18.80;15.68;;;20.00;1.00;;;;;;5039326;28;20623;-86
2022/09/20 10:33:02;;;;;;;18.00;15.15;;;19.90;1.00;;;;;;5035896;28;20182;-87
2022/09/20 10:35:43;;;;;;;18.77;15.70;;;19.60;1.00;;;;;;5035587;28;20229;-85
2022/09/20 10:38:33;;;;;;;19.80;15.95;;;19.40;1.00;;;;;;5041349;28;20189;-90
2022/09/20 10:44:08;;;;;;;13.48;12.23;;;18.50;1.00;;;;;;5037527;28;20099;-85
2022/09/20 10:46:57;;;;;;;13.02;11.82;;;18.00;1.00;;;;;;5046200;28;20300;-85
2022/09/20 10:49:35;;;;;;;14.18;12.80;;;17.60;1.00;;;;;;5047167;28;20653;-86
2022/09/20 10:52:30;;;;;;;13.90;12.55;;;17.40;1.00;;;;;;5040467;28;20243;-89
2022/09/20 10:55:29;;;;;;;13.95;12.60;;;17.50;1.00;;;;;;5037316;28;20201;-86
2022/09/20 10:58:30;;;;;;;13.82;12.48;;;17.40;1.00;;;;;;5045367;28;20697;-85
2022/09/20 11:01:07;;;;;;;14.05;12.68;;;17.20;1.00;;;;;;5033799;28;20153;-88
2022/09/20 11:03:55;;;;;;;14.50;13.07;;;17.40;1.00;;;;;;5020849;28;20233;-90
2022/09/20 11:06:37;;;;;;;14.25;12.85;;;17.70;1.00;;;;;;5014845;28;20241;-85
2022/09/20 11:09:09;;;;;;;14.20;12.80;;;17.90;1.00;;;;;;5018054;28;20178;-85
2022/09/20 11:11:40;;;;;;;14.90;13.40;;;18.10;1.00;;;;;;5014657;28;20186;-85
2022/09/20 11:14:10;;;;;;;14.57;13.13;;;18.20;1.00;;;;;;5025372;28;20244;-86
2022/09/20 11:16:43;;;;;;;14.27;12.88;;;18.20;1.00;;;;;;5020946;28;20222;-89
2022/09/20 11:19:22;;;;;;;14.15;12.75;;;18.00;1.00;;;;;;5023001;28;20190;-88
2022/09/20 11:25:06;;;;;;;13.68;12.38;;;17.50;1.00;;;;;;5023326;28;20289;-90
2022/09/20 11:27:41;;;;;;;14.40;12.98;;;17.30;1.00;;;;;;5019170;28;20522;-90
2022/09/20 11:30:16;;;;;;;14.50;13.05;;;17.20;1.00;;;;;;5035915;28;20192;-87
2022/09/20 11:32:49;;;;;;;14.75;13.25;;;17.30;1.00;;;;;;5036886;28;20223;-92
2022/09/20 11:35:28;;;;;;;14.65;13.15;;;17.50;1.00;;;;;;5041222;28;20247;-86
2022/09/20 11:38:08;;;;;;;14.73;13.23;;;17.60;1.00;;;;;;5039421;28;20207;-87
2022/09/20 11:40:46;;;;;;;15.15;13.55;;;17.90;1.00;;;;;;5036951;28;20192;-87
2022/09/20 11:43:32;;;;;;;14.82;13.27;;;17.90;1.00;;;;;;5040388;28;20205;-91
2022/09/20 11:46:04;;;;;;;15.02;13.43;;;17.90;1.00;;;;;;5034693;28;20177;-86
2022/09/20 11:48:34;;;;;;;15.20;13.60;;;17.90;1.00;;;;;;5034478;28;20182;-86
2022/09/20 11:51:32;;;;;;;15.02;13.45;;;18.10;1.00;;;;;;5035789;28;20186;-86
2022/09/20 11:54:27;;;;;;;14.80;13.27;;;18.20;1.00;;;;;;5037723;28;20193;-87
2022/09/20 11:57:25;;;;;;;15.10;13.52;;;18.10;1.00;;;;;;5046788;28;20227;-89
2022/09/20 11:59:55;;;;;;;14.43;12.95;;;17.80;1.00;;;;;;5029609;28;20259;-86
2022/09/20 12:02:29;;;;;;;14.50;13.00;;;17.60;1.00;;;;;;5037155;28;20320;-87
2022/09/20 12:04:57;;;;;;;14.88;13.35;;;17.50;1.00;;;;;;5033542;28;20184;-87
2022/09/20 12:07:26;;;;;;;14.85;13.32;;;17.60;1.00;;;;;;5032797;28;20239;-85
2022/09/20 12:10:00;;;;;;;14.18;12.75;;;17.70;1.00;;;;;;5026487;28;20721;-89
2022/09/20 12:13:01;;;;;;;14.25;12.80;;;17.80;1.00;;;;;;5020907;28;20197;-92
2022/09/20 12:15:31;;;;;;;14.35;12.90;;;17.90;1.00;;;;;;5018561;28;20590;-86
2022/09/20 12:18:12;;;;;;;14.52;13.05;;;18.00;1.00;;;;;;5013557;28;20212;-85
2022/09/20 12:21:02;;;;;;;14.48;12.98;;;18.20;1.00;;;;;;5014019;28;20186;-86
2022/09/20 12:24:16;;;;;;;14.88;13.35;;;18.20;1.00;;;;;;5023604;28;20202;-88
2022/09/20 12:26:46;;;;;;;15.02;13.48;;;18.20;1.00;;;;;;5013242;28;20220;-86
2022/09/20 12:32:45;;;;;;;15.00;13.43;;;18.40;1.00;;;;;;5036791;28;20685;-86
2022/09/20 12:36:00;;;;;;;16.52;14.35;;;18.60;1.00;;;;;;5039317;28;20201;-88
2022/09/20 12:38:43;;;;;;;16.13;14.20;;;18.70;1.00;;;;;;5033590;28;20224;-86
2022/09/20 12:41:14;;;;;;;14.55;13.07;;;19.00;1.00;;;;;;5033277;28;20641;-85
2022/09/20 12:47:45;;;;;;;14.02;12.68;;;19.10;1.00;;;;;;5050345;28;20205;-90
2022/09/20 12:53:16;;;;;;;13.95;12.63;;;18.80;1.00;;;;;;5040140;28;20172;-89
2022/09/20 12:55:51;;;;;;;13.70;12.40;;;18.70;1.00;;;;;;5032903;28;20261;-86
2022/09/20 12:58:27;;;;;;;13.90;12.57;;;18.50;1.00;;;;;;5037077;28;20204;-91
2022/09/20 13:01:31;;;;;;;14.05;12.70;;;18.40;1.00;;;;;;5032292;28;20188;-85
2022/09/20 13:04:41;;;;;;;15.20;13.57;;;18.50;1.00;;;;;;5032585;28;20232;-85
2022/09/20 13:07:47;;;;;;;15.75;13.98;;;18.50;1.00;;;;;;5020674;28;22124;-87
2022/09/20 13:10:36;;;;;;;15.32;13.68;;;18.70;1.00;;;;;;5001847;28;20201;-85
2022/09/20 13:13:29;;;;;;;15.32;13.70;;;18.80;1.00;;;;;;5032671;28;20280;-86
2022/09/20 13:23:15;;;;;;;;;;;;;;;;;;;;;
2022/09/20 13:25:44;;;;;;;15.88;13.95;;;18.30;1.00;;;;;;4966377;28;20224;-87
2022/09/20 13:38:07;;;;;;;15.18;13.57;;;17.70;1.00;;;;;;5005850;28;20575;-89
2022/09/20 13:43:29;;;;;;;14.63;13.13;;;17.50;1.00;;;;;;5030845;28;20188;-87
2022/09/20 13:45:58;;;;;;;12.80;11.68;;;17.30;1.00;;;;;;5032123;28;20630;-87
2022/09/20 13:48:26;;;;;;;12.90;11.73;;;17.10;1.00;;;;;;5032651;28;20598;-91
2022/09/20 13:50:54;;;;;;;12.70;11.60;;;17.00;1.00;;;;;;5032783;28;20195;-90
2022/09/20 13:53:23;;;;;;;11.73;10.82;;;17.00;1.00;;;;;;5032110;28;20198;-87
2022/09/20 13:55:51;;;;;;;10.90;10.10;;;17.00;1.00;;;;;;5032329;28;20197;-88
2022/09/20 13:58:21;;;;;;;12.13;11.13;;;17.10;1.00;;;;;;5034658;28;20221;-88
2022/09/20 14:00:52;;;;;;;11.23;10.32;;;17.10;1.00;;;;;;5036436;28;20205;-88
2022/09/20 14:07:11;;;;;;;;;;;;;;;;;;;;;
2022/09/20 14:16:50;;;;;;;12.07;11.07;;;16.90;1.00;;;;;;4932816;29;20212;-88
2022/09/20 14:19:59;;;;;;;;;;;;;;;;;;;;;
2022/09/20 14:28:37;;;;;;;11.20;10.30;;;16.90;1.00;;;;;;5049313;28;20196;-91
2022/09/20 14:31:09;;;;;;;11.20;10.40;;;17.00;1.00;;;;;;5054866;28;20185;-87
2022/09/20 14:33:43;;;;;;;11.95;10.98;;;17.00;1.00;;;;;;5043740;28;20204;-85
2022/09/20 14:36:15;;;;;;;13.07;11.93;;;17.10;1.00;;;;;;5035286;28;20252;-85
2022/09/20 14:38:44;;;;;;;13.20;11.98;;;17.10;1.00;;;;;;5035171;28;20295;-85
2022/09/20 14:41:12;;;;;;;13.38;12.15;;;17.00;1.00;;;;;;5034686;28;20771;-85
2022/09/20 14:43:56;;;;;;;13.55;12.27;;;16.90;1.00;;;;;;5042433;28;20232;-90
2022/09/20 14:46:38;;;;;;;12.65;11.50;;;16.90;1.00;;;;;;5049441;28;20204;-89
2022/09/20 14:49:41;;;;;;;13.32;12.07;;;16.80;1.00;;;;;;5058904;28;20212;-89
2022/09/20 14:52:38;;;;;;;13.32;12.07;;;16.80;1.00;;;;;;5035362;28;20193;-86
2022/09/20 14:55:19;;;;;;;13.10;11.88;;;16.70;1.00;;;;;;5038124;28;20197;-86
2022/09/20 14:57:47;;;;;;;12.93;11.75;;;16.60;1.00;;;;;;5034526;28;20197;-86
2022/09/20 15:00:19;;;;;;;13.43;12.15;;;16.60;1.00;;;;;;5022874;28;20197;-85
2022/09/20 15:02:47;;;;;;;14.20;12.82;;;16.40;1.00;;;;;;5024699;28;20217;-86
2022/09/20 15:05:24;;;;;;;14.27;12.85;;;16.40;1.00;;;;;;5033718;28;20201;-86
2022/09/20 15:07:52;;;;;;;14.40;12.95;;;16.30;1.00;;;;;;5032819;28;20673;-85
2022/09/20 15:10:21;;;;;;;14.35;12.85;;;16.30;1.00;;;;;;5052096;28;20193;-86
2022/09/20 15:12:49;;;;;;;14.70;13.15;;;16.20;1.00;;;;;;5037573;28;20193;-85
2022/09/20 15:15:24;;;;;;;15.07;13.43;;;16.10;1.00;;;;;;5047454;28;20200;-90
2022/09/20 15:17:59;;;;;;;15.23;13.55;;;16.10;1.00;;;;;;5051414;28;20204;-90
2022/09/20 15:20:37;;;;;;;15.48;13.73;;;16.10;1.00;;;;;;5041901;28;20198;-91
2022/09/20 15:23:09;;;;;;;16.30;14.05;;;16.10;1.00;;;;;;5046800;28;20201;-89
2022/09/20 15:25:39;;;;;;;16.17;14.07;;;16.00;1.00;;;;;;5052170;28;20200;-87
2022/09/20 15:28:17;;;;;;;15.88;13.95;;;16.00;1.00;;;;;;5054048;28;20208;-90
2022/09/20 15:31:01;;;;;;;16.73;14.23;;;16.00;1.00;;;;;;5049619;28;20704;-88
2022/09/20 15:33:31;;;;;;;16.63;14.20;;;15.90;1.00;;;;;;5052690;28;20191;-87
2022/09/20 15:35:58;;;;;;;16.65;14.07;;;15.90;1.00;;;;;;5040508;28;20653;-86
2022/09/20 15:38:35;;;;;;;17.75;14.60;;;15.80;1.00;;;;;;5029700;28;20217;-89
2022/09/20 15:41:37;;;;;;;15.25;13.63;;;15.70;1.00;;;;;;5025251;28;20197;-92